Time;durP1;ratioP1;P1;durP2;ratioP2;P2;SDS_P1;SDS_P2;PMS_P1;PMS_P2;Temp;Humidity;BMP_temperature;BMP_pressure;BME280_temperature;BME280_humidity;BME280_pressure;Samples;Min_cycle;Max_cycle;Signal;HPM_P1;HPM_P2
2022/08/04 00:01:33;;;;;;;343.05;316.02;;;22.90;86.30;;;;;;4995527;28;20055;-76
2022/08/04 00:04:03;;;;;;;330.75;304.58;;;22.90;87.00;;;;;;4995404;28;20046;-76
2022/08/04 00:06:51;;;;;;;352.42;324.70;;;22.80;86.80;;;;;;5011540;28;20535;-76
2022/08/04 00:09:43;;;;;;;360.70;332.05;;;22.80;85.70;;;;;;4995055;28;20048;-76
2022/08/04 00:12:12;;;;;;;345.67;318.40;;;22.80;86.10;;;;;;5011673;28;20134;-76
2022/08/04 00:14:50;;;;;;;347.42;320.00;;;22.70;86.80;;;;;;4995464;28;20046;-76
2022/08/04 00:17:20;;;;;;;386.85;356.27;;;22.70;86.80;;;;;;5011531;28;20061;-76
2022/08/04 00:19:49;;;;;;;371.92;342.70;;;22.70;86.70;;;;;;5012542;28;20054;-76
2022/08/04 00:22:19;;;;;;;373.63;344.05;;;22.60;86.70;;;;;;5009939;28;20149;-76
2022/08/04 00:24:48;;;;;;;389.25;358.65;;;22.60;86.90;;;;;;5011583;28;20566;-76
2022/08/04 00:27:16;;;;;;;358.20;329.92;;;22.60;86.80;;;;;;5012357;28;20051;-76
2022/08/04 00:29:45;;;;;;;346.48;318.77;;;22.60;86.80;;;;;;4995214;28;20611;-76
2022/08/04 00:32:13;;;;;;;356.85;328.48;;;22.60;87.20;;;;;;5011142;28;20683;-76
2022/08/04 00:34:41;;;;;;;351.70;324.10;;;22.50;87.40;;;;;;5012888;28;20501;-76
2022/08/04 00:37:07;;;;;;;356.80;328.73;;;22.50;87.60;;;;;;5012659;28;20054;-76
2022/08/04 00:39:34;;;;;;;332.45;305.80;;;22.50;87.50;;;;;;5011241;28;20536;-76
2022/08/04 00:42:21;;;;;;;336.80;309.80;;;22.50;87.70;;;;;;5011766;28;20834;-76
2022/08/04 00:45:02;;;;;;;380.45;350.65;;;22.50;87.60;;;;;;5011324;28;20133;-76
2022/08/04 00:47:41;;;;;;;371.70;342.02;;;22.40;87.60;;;;;;5012403;28;20520;-76
2022/08/04 00:50:10;;;;;;;383.38;353.27;;;22.40;87.10;;;;;;5012694;28;20490;-77
2022/08/04 00:52:49;;;;;;;354.83;326.13;;;22.40;87.70;;;;;;5011026;28;20047;-76
2022/08/04 00:55:41;;;;;;;359.25;330.23;;;22.40;87.60;;;;;;5011079;28;20054;-76
2022/08/04 00:58:28;;;;;;;386.40;355.70;;;22.30;86.00;;;;;;4994281;28;20058;-76
2022/08/04 01:01:02;;;;;;;354.27;325.73;;;22.30;86.40;;;;;;5012260;28;20432;-76
2022/08/04 01:03:36;;;;;;;;;;;22.30;87.60;;;;;;5011242;28;20047;-76
2022/08/04 01:06:11;;;;;;;368.15;338.15;;;22.30;83.50;;;;;;5010870;28;19925;-76
2022/08/04 01:09:00;;;;;;;359.60;330.58;;;22.20;88.00;;;;;;5011918;28;20050;-76
2022/08/04 01:11:41;;;;;;;344.92;316.90;;;22.20;87.00;;;;;;5011155;28;20070;-76
2022/08/04 01:14:39;;;;;;;432.73;398.63;;;22.20;88.70;;;;;;5012309;28;20132;-76
2022/08/04 01:17:15;;;;;;;399.52;367.65;;;22.20;87.20;;;;;;4993628;28;20055;-76
2022/08/04 01:19:54;;;;;;;409.35;376.52;;;22.20;88.50;;;;;;5010694;28;20046;-76
2022/08/04 01:22:51;;;;;;;394.42;362.73;;;22.20;87.80;;;;;;4993818;28;20042;-76
2022/08/04 01:25:41;;;;;;;360.30;331.08;;;22.20;87.70;;;;;;4994187;28;20492;-76
2022/08/04 01:28:28;;;;;;;360.48;331.55;;;22.10;88.10;;;;;;5008869;28;20494;-76
2022/08/04 01:31:02;;;;;;;347.90;319.50;;;22.10;88.40;;;;;;5010849;28;20055;-76
2022/08/04 01:33:32;;;;;;;354.55;325.60;;;22.10;89.20;;;;;;5010726;28;20130;-76
2022/08/04 01:36:05;;;;;;;372.38;342.38;;;22.10;89.20;;;;;;5010280;28;20050;-76
2022/08/04 01:38:35;;;;;;;310.52;285.30;;;22.00;89.40;;;;;;5010808;28;20132;-76
2022/08/04 01:41:04;;;;;;;351.38;323.02;;;22.00;90.00;;;;;;5009919;28;20078;-76
2022/08/04 01:43:33;;;;;;;348.48;320.67;;;22.00;90.00;;;;;;5011503;28;20074;-76
2022/08/04 01:46:03;;;;;;;343.92;315.95;;;22.00;90.00;;;;;;5010494;28;20440;-76
2022/08/04 01:48:31;;;;;;;338.65;310.50;;;22.00;89.90;;;;;;5009896;28;20061;-76
2022/08/04 01:50:59;;;;;;;343.30;315.20;;;22.00;90.10;;;;;;5010286;28;20050;-76
2022/08/04 01:53:32;;;;;;;353.23;324.60;;;22.00;90.20;;;;;;5009900;28;20050;-76
2022/08/04 01:56:01;;;;;;;336.77;309.10;;;21.90;90.10;;;;;;5011607;28;20660;-76
2022/08/04 01:58:30;;;;;;;338.90;310.88;;;21.90;90.10;;;;;;5009793;28;20117;-76
2022/08/04 02:01:01;;;;;;;325.65;298.85;;;21.90;90.10;;;;;;4988731;28;20054;-76
2022/08/04 02:03:30;;;;;;;349.75;320.83;;;21.90;90.20;;;;;;4991592;28;20059;-76
2022/08/04 02:06:08;;;;;;;350.45;321.83;;;21.90;90.20;;;;;;5006156;28;20050;-76
2022/08/04 02:08:44;;;;;;;339.85;311.88;;;21.80;90.10;;;;;;4989920;28;20132;-76
2022/08/04 02:11:16;;;;;;;321.30;294.73;;;21.80;90.00;;;;;;5006136;28;20613;-76
2022/08/04 02:13:53;;;;;;;313.40;287.67;;;21.80;90.20;;;;;;4991552;28;20063;-76
2022/08/04 02:16:29;;;;;;;317.35;290.95;;;21.80;90.10;;;;;;4991538;28;20065;-76
2022/08/04 02:19:04;;;;;;;360.30;330.85;;;21.70;90.20;;;;;;5006566;28;20090;-76
2022/08/04 02:21:32;;;;;;;343.40;315.08;;;21.70;90.10;;;;;;4990071;28;20082;-76
2022/08/04 02:24:05;;;;;;;368.85;339.10;;;21.70;90.20;;;;;;4991560;28;20050;-76
2022/08/04 02:26:35;;;;;;;360.52;331.08;;;21.70;90.20;;;;;;5006520;28;20088;-76
2022/08/04 02:29:12;;;;;;;323.73;296.77;;;21.70;90.20;;;;;;4990635;28;20184;-76
2022/08/04 02:31:43;;;;;;;330.08;303.08;;;21.60;90.10;;;;;;5006482;28;20057;-76
2022/08/04 02:34:20;;;;;;;333.90;306.45;;;21.60;90.40;;;;;;5006971;28;20059;-76
2022/08/04 02:36:50;;;;;;;311.30;285.23;;;21.60;90.60;;;;;;4990275;28;20057;-76
2022/08/04 02:39:19;;;;;;;323.13;296.42;;;21.60;90.80;;;;;;4990706;28;20054;-76
2022/08/04 02:41:47;;;;;;;346.15;317.75;;;21.60;91.10;;;;;;4991224;28;20046;-76
2022/08/04 02:44:21;;;;;;;322.25;295.55;;;21.60;91.20;;;;;;4989760;28;20059;-76
2022/08/04 02:46:51;;;;;;;311.92;285.65;;;21.50;91.20;;;;;;4991203;28;20054;-76
2022/08/04 02:49:22;;;;;;;373.45;342.95;;;21.50;91.20;;;;;;4991046;28;20069;-76
2022/08/04 02:51:51;;;;;;;359.58;330.05;;;21.50;91.30;;;;;;4989186;28;20051;-76
2022/08/04 02:54:22;;;;;;;374.70;343.55;;;21.50;91.40;;;;;;4989643;28;20585;-76
2022/08/04 02:56:51;;;;;;;378.77;347.65;;;21.50;91.40;;;;;;4991049;28;20055;-76
2022/08/04 02:59:23;;;;;;;361.42;331.60;;;21.40;91.30;;;;;;4991026;28;20117;-76
2022/08/04 03:01:50;;;;;;;335.40;307.45;;;21.40;91.30;;;;;;4989736;28;20051;-76
2022/08/04 03:04:34;;;;;;;326.65;299.67;;;21.40;91.30;;;;;;4990788;28;20163;-76
2022/08/04 03:07:29;;;;;;;333.13;304.75;;;21.40;91.30;;;;;;4991411;28;20058;-76
2022/08/04 03:10:25;;;;;;;329.67;300.88;;;21.30;91.10;;;;;;5008976;28;20055;-77
2022/08/04 03:13:35;;;;;;;416.17;381.70;;;21.30;91.20;;;;;;5010344;28;20513;-76
2022/08/04 03:16:30;;;;;;;377.25;344.92;;;21.30;91.40;;;;;;5010336;28;20441;-76
2022/08/04 03:19:28;;;;;;;361.33;330.52;;;21.30;91.00;;;;;;5008661;28;20512;-76
2022/08/04 03:22:27;;;;;;;356.15;325.75;;;21.30;91.20;;;;;;5001850;28;20109;-76
2022/08/04 03:25:30;;;;;;;345.95;316.17;;;21.30;91.20;;;;;;5011084;28;20050;-76
2022/08/04 03:28:12;;;;;;;;;;;21.20;91.10;;;;;;5011620;28;20518;-76
2022/08/04 03:31:08;;;;;;;302.23;275.50;;;21.20;90.10;;;;;;5012502;28;20402;-76
2022/08/04 03:33:49;;;;;;;330.27;301.83;;;21.10;91.40;;;;;;4988656;28;20528;-76
2022/08/04 03:36:59;;;;;;;335.83;307.45;;;21.10;91.90;;;;;;5013461;28;20071;-76
2022/08/04 03:40:09;;;;;;;379.13;346.85;;;21.10;91.60;;;;;;4991939;28;20503;-76
2022/08/04 03:43:11;;;;;;;367.73;336.25;;;21.10;91.30;;;;;;4992191;28;20057;-76
2022/08/04 03:46:06;;;;;;;344.80;315.02;;;21.10;91.60;;;;;;4992380;28;20487;-76
2022/08/04 03:49:14;;;;;;;352.40;322.48;;;21.00;91.60;;;;;;4991922;28;20139;-76
2022/08/04 03:55:11;;;;;;;315.58;288.02;;;21.00;92.10;;;;;;4993611;28;20043;-76
2022/08/04 03:57:56;;;;;;;317.83;290.58;;;21.00;92.10;;;;;;4993147;28;20577;-76
2022/08/04 04:00:30;;;;;;;381.95;349.77;;;21.00;92.30;;;;;;4992170;28;20513;-76
2022/08/04 04:03:28;;;;;;;365.40;334.30;;;21.00;92.70;;;;;;4991763;28;20133;-76
2022/08/04 04:06:29;;;;;;;358.13;327.33;;;20.90;92.40;;;;;;4991816;28;20051;-76
2022/08/04 04:09:36;;;;;;;351.02;320.42;;;20.90;92.70;;;;;;4992887;28;20556;-76
2022/08/04 04:12:45;;;;;;;354.52;324.15;;;20.80;92.60;;;;;;4993291;28;20057;-76
2022/08/04 04:15:32;;;;;;;372.20;340.30;;;20.80;92.60;;;;;;4947672;28;20142;-76
2022/08/04 04:18:38;;;;;;;341.65;312.38;;;20.80;92.90;;;;;;4975032;28;20047;-76
2022/08/04 04:21:27;;;;;;;340.42;310.92;;;20.70;92.70;;;;;;4991600;28;20129;-76
2022/08/04 04:24:33;;;;;;;395.98;362.45;;;20.70;93.10;;;;;;4992910;28;20051;-76
2022/08/04 04:27:09;;;;;;;453.67;416.45;;;20.70;93.00;;;;;;4990640;28;20058;-76
2022/08/04 04:30:04;;;;;;;481.75;443.00;;;20.70;93.20;;;;;;4992761;28;20075;-76
2022/08/04 04:33:23;;;;;;;435.92;399.85;;;20.70;92.50;;;;;;4991758;28;20055;-76
2022/08/04 04:36:03;;;;;;;420.88;385.48;;;20.70;92.20;;;;;;4935627;28;20052;-76
2022/08/04 04:38:47;;;;;;;434.23;398.25;;;20.70;92.90;;;;;;4982166;28;20046;-76
2022/08/04 04:41:40;;;;;;;410.38;375.60;;;20.60;93.10;;;;;;4991576;28;20054;-76
2022/08/04 04:44:29;;;;;;;400.10;365.83;;;20.60;92.70;;;;;;4992831;28;20059;-76
2022/08/04 04:47:09;;;;;;;403.48;369.17;;;20.60;93.30;;;;;;4996888;28;20755;-76
2022/08/04 04:49:54;;;;;;;389.90;356.65;;;20.60;93.60;;;;;;5011171;28;20054;-76
2022/08/04 04:52:28;;;;;;;439.45;403.23;;;20.60;93.70;;;;;;5010837;28;20137;-76
2022/08/04 04:55:02;;;;;;;396.40;362.58;;;20.60;93.80;;;;;;5012487;28;20050;-76
2022/08/04 04:57:35;;;;;;;396.90;363.35;;;20.60;94.00;;;;;;5010811;28;20043;-76
2022/08/04 05:00:06;;;;;;;364.30;333.10;;;20.60;93.90;;;;;;5010777;28;20691;-76
2022/08/04 05:03:13;;;;;;;358.20;327.23;;;20.60;94.10;;;;;;5018576;28;20066;-76
2022/08/04 05:05:57;;;;;;;359.17;328.27;;;20.60;94.40;;;;;;4986774;28;20057;-76
2022/08/04 05:08:51;;;;;;;392.85;359.48;;;20.50;94.30;;;;;;5012026;28;20053;-76
2022/08/04 05:11:35;;;;;;;397.85;364.02;;;20.50;94.30;;;;;;5012140;28;21051;-77
2022/08/04 05:14:08;;;;;;;351.98;321.50;;;20.60;94.40;;;;;;4994366;28;20492;-78
2022/08/04 05:16:39;;;;;;;322.98;294.33;;;20.50;94.80;;;;;;5006210;28;20137;-74
2022/08/04 05:19:18;;;;;;;393.08;359.85;;;20.50;95.00;;;;;;5018843;28;20688;-74
2022/08/04 05:21:49;;;;;;;369.15;337.98;;;20.60;95.10;;;;;;4989803;28;20047;-74
2022/08/04 05:24:19;;;;;;;370.73;339.08;;;20.60;95.20;;;;;;5010368;28;20097;-74
2022/08/04 05:26:51;;;;;;;341.08;311.85;;;20.60;95.40;;;;;;5008082;28;20487;-75
2022/08/04 05:29:29;;;;;;;374.08;342.20;;;20.60;95.50;;;;;;5021115;28;20056;-75
2022/08/04 05:31:59;;;;;;;375.60;343.80;;;20.60;95.50;;;;;;5014953;28;20054;-77
2022/08/04 05:34:29;;;;;;;338.20;309.15;;;20.60;95.70;;;;;;5016215;28;20085;-77
2022/08/04 05:37:00;;;;;;;369.45;337.55;;;20.70;96.20;;;;;;5002563;28;20054;-75
2022/08/04 05:39:29;;;;;;;373.80;342.17;;;20.70;96.40;;;;;;5009431;28;20042;-77
2022/08/04 05:41:58;;;;;;;380.10;347.88;;;20.60;96.30;;;;;;5017173;28;20050;-77
2022/08/04 05:44:28;;;;;;;362.42;331.45;;;20.70;96.30;;;;;;5018072;28;20054;-79
2022/08/04 05:46:57;;;;;;;370.48;339.23;;;20.70;96.30;;;;;;5011770;28;20826;-74
2022/08/04 05:49:25;;;;;;;347.52;317.67;;;20.70;96.40;;;;;;5010620;28;20047;-75
2022/08/04 05:51:55;;;;;;;366.77;335.80;;;20.80;96.50;;;;;;5017154;28;20049;-75
2022/08/04 05:54:22;;;;;;;387.35;354.58;;;20.80;96.50;;;;;;5025569;28;20074;-75
2022/08/04 05:56:51;;;;;;;379.83;347.95;;;20.80;96.50;;;;;;5006687;28;20508;-80
2022/08/04 05:59:19;;;;;;;324.65;296.92;;;20.90;96.60;;;;;;5006941;28;20154;-79
2022/08/04 06:01:48;;;;;;;319.77;292.27;;;20.90;96.50;;;;;;5008818;28;20047;-77
2022/08/04 06:04:17;;;;;;;348.85;319.20;;;20.90;96.50;;;;;;5018006;28;20050;-77
2022/08/04 06:06:46;;;;;;;354.05;323.95;;;21.00;96.50;;;;;;5020760;28;20056;-76
2022/08/04 06:09:13;;;;;;;352.23;322.67;;;21.00;96.80;;;;;;5009022;28;20252;-76
2022/08/04 06:11:41;;;;;;;336.83;308.38;;;21.10;96.80;;;;;;4999003;28;20051;-76
2022/08/04 06:14:13;;;;;;;333.80;305.10;;;21.10;97.00;;;;;;5016199;28;20053;-76
2022/08/04 06:16:42;;;;;;;338.95;310.02;;;21.10;97.00;;;;;;5017409;28;21052;-76
2022/08/04 06:19:13;;;;;;;307.85;281.25;;;21.20;97.10;;;;;;5014164;28;20046;-76
2022/08/04 06:21:47;;;;;;;327.10;299.00;;;21.20;97.10;;;;;;5018857;28;20137;-76
2022/08/04 06:24:18;;;;;;;318.40;290.92;;;21.30;97.10;;;;;;5018929;28;20054;-77
2022/08/04 06:26:47;;;;;;;323.27;295.52;;;21.40;97.00;;;;;;5018537;28;20050;-77
2022/08/04 06:29:23;;;;;;;319.50;292.38;;;21.50;97.00;;;;;;5015414;28;20094;-77
2022/08/04 06:31:57;;;;;;;304.05;278.45;;;21.50;97.00;;;;;;5019322;28;20060;-77
2022/08/04 06:34:27;;;;;;;305.38;279.33;;;21.50;97.00;;;;;;5021167;28;20125;-77
2022/08/04 06:36:56;;;;;;;310.75;284.55;;;21.60;96.90;;;;;;4988739;28;20133;-75
2022/08/04 06:39:25;;;;;;;305.98;280.02;;;21.70;96.90;;;;;;4999066;28;20050;-74
2022/08/04 06:41:53;;;;;;;306.65;280.88;;;21.70;96.90;;;;;;4998850;28;20054;-74
2022/08/04 06:44:22;;;;;;;324.55;297.27;;;21.80;97.00;;;;;;5001129;28;20428;-74
2022/08/04 06:46:50;;;;;;;274.17;251.15;;;21.90;97.10;;;;;;5009353;28;20054;-77
2022/08/04 06:49:18;;;;;;;323.90;296.33;;;21.90;97.00;;;;;;5009219;28;20547;-77
2022/08/04 06:51:47;;;;;;;318.33;291.33;;;22.00;96.90;;;;;;5010351;28;20126;-77
2022/08/04 06:54:15;;;;;;;323.75;297.00;;;22.10;96.90;;;;;;5009265;28;20055;-77
2022/08/04 06:56:43;;;;;;;336.48;308.73;;;22.10;96.90;;;;;;5009354;28;20061;-77
2022/08/04 06:59:11;;;;;;;300.35;275.08;;;22.20;96.90;;;;;;5011887;28;20583;-77
2022/08/04 07:01:40;;;;;;;341.48;313.38;;;22.30;96.80;;;;;;5014136;28;20050;-77
2022/08/04 07:04:08;;;;;;;374.60;344.30;;;22.40;96.80;;;;;;5007504;28;20062;-77
2022/08/04 07:06:35;;;;;;;290.75;266.48;;;22.50;96.60;;;;;;5008045;28;20058;-77
2022/08/04 07:09:06;;;;;;;282.98;259.27;;;22.60;96.50;;;;;;4975265;28;20711;-77
2022/08/04 07:11:34;;;;;;;283.17;259.17;;;22.70;96.10;;;;;;4993223;28;20073;-77
2022/08/04 07:14:02;;;;;;;297.35;272.02;;;22.80;95.90;;;;;;5008169;28;20061;-77
2022/08/04 07:16:30;;;;;;;267.13;244.23;;;22.80;95.80;;;;;;4993628;28;20055;-77
2022/08/04 07:18:57;;;;;;;281.33;257.85;;;22.90;95.70;;;;;;5008773;28;20047;-77
2022/08/04 07:21:26;;;;;;;289.95;265.65;;;23.00;95.70;;;;;;5009814;28;20059;-77
2022/08/04 07:23:53;;;;;;;349.33;320.60;;;23.10;95.70;;;;;;4994302;28;20054;-77
2022/08/04 07:26:27;;;;;;;333.98;306.65;;;23.10;95.60;;;;;;4992551;28;20536;-76
2022/08/04 07:28:55;;;;;;;308.75;282.98;;;23.20;95.60;;;;;;5008692;28;20054;-75
2022/08/04 07:31:23;;;;;;;332.67;305.02;;;23.30;95.50;;;;;;5008981;28;21002;-77
2022/08/04 07:33:51;;;;;;;276.80;254.02;;;23.30;95.30;;;;;;5001670;28;20050;-73
2022/08/04 07:36:17;;;;;;;271.23;248.88;;;23.40;95.30;;;;;;5003876;28;20421;-73
2022/08/04 07:38:45;;;;;;;265.20;243.27;;;23.50;95.20;;;;;;5000582;28;20042;-76
2022/08/04 07:41:12;;;;;;;270.58;248.70;;;23.60;95.00;;;;;;5010074;28;20138;-76
2022/08/04 07:43:41;;;;;;;271.08;248.82;;;23.60;94.90;;;;;;4992183;28;20121;-78
2022/08/04 07:46:10;;;;;;;339.60;312.25;;;23.70;94.80;;;;;;5000817;28;20085;-76
2022/08/04 07:48:37;;;;;;;370.20;340.73;;;23.80;94.70;;;;;;5002276;28;20595;-74
2022/08/04 07:51:04;;;;;;;380.13;350.55;;;23.90;94.70;;;;;;4999774;28;20804;-82
2022/08/04 07:53:33;;;;;;;348.63;320.98;;;23.90;94.50;;;;;;4976091;28;20046;-81
2022/08/04 07:56:01;;;;;;;353.63;325.73;;;24.00;94.70;;;;;;5010008;28;20141;-82
2022/08/04 07:58:28;;;;;;;352.42;324.65;;;24.10;94.60;;;;;;5011947;28;20438;-81
2022/08/04 08:00:56;;;;;;;430.73;398.02;;;24.10;94.60;;;;;;4996190;28;20058;-85
2022/08/04 08:03:24;;;;;;;431.50;398.48;;;24.20;94.30;;;;;;5010844;28;20592;-76
2022/08/04 08:05:51;;;;;;;410.30;378.75;;;24.30;94.10;;;;;;5008991;28;20054;-78
2022/08/04 08:08:19;;;;;;;417.63;385.30;;;24.40;93.80;;;;;;5009398;28;20054;-76
2022/08/04 08:10:48;;;;;;;423.95;391.65;;;24.40;93.60;;;;;;4994201;28;20129;-77
2022/08/04 08:13:15;;;;;;;423.00;391.30;;;24.50;93.70;;;;;;5013030;28;20052;-79
2022/08/04 08:15:45;;;;;;;486.67;451.17;;;24.60;93.40;;;;;;5004446;28;20054;-75
2022/08/04 08:18:14;;;;;;;389.95;360.13;;;24.60;93.30;;;;;;4931324;28;72221;-79
2022/08/04 08:20:52;;;;;;;435.98;403.38;;;;;;;;;;4853935;27;70053;-80
2022/08/04 08:24:20;;;;;;;481.25;446.63;;;24.70;93.30;;;;;;5150282;27;20343;-73
2022/08/04 08:26:48;;;;;;;436.65;404.30;;;24.90;93.00;;;;;;5078430;27;58690;-73
2022/08/04 08:29:15;;;;;;;413.02;381.58;;;25.00;92.60;;;;;;5099602;28;20530;-80
2022/08/04 08:31:43;;;;;;;407.92;377.50;;;25.10;92.50;;;;;;4982903;28;1878030;-78
2022/08/04 08:34:12;;;;;;;454.30;421.00;;;25.10;92.80;;;;;;5017738;27;354250;-73
2022/08/04 08:36:45;;;;;;;422.98;392.10;;;25.20;92.80;;;;;;4903257;27;20069;-75
2022/08/04 08:39:16;;;;;;;457.92;424.85;;;25.30;92.60;;;;;;5057088;28;20084;-81
2022/08/04 08:42:18;;;;;;;414.08;383.63;;;25.40;92.40;;;;;;5089945;28;20909;-78
2022/08/04 08:45:24;;;;;;;477.85;443.60;;;25.50;92.10;;;;;;5093675;28;20052;-75
2022/08/04 08:48:09;;;;;;;435.00;401.55;;;25.60;91.90;;;;;;5103673;28;20048;-78
2022/08/04 08:51:02;;;;;;;398.88;368.95;;;25.70;91.80;;;;;;5089827;28;20052;-78
2022/08/04 08:53:58;;;;;;;373.92;345.30;;;25.80;91.60;;;;;;5107098;28;20529;-78
2022/08/04 08:56:32;;;;;;;408.88;378.55;;;25.90;91.30;;;;;;5052091;27;20057;-77
2022/08/04 08:59:35;;;;;;;406.35;375.98;;;25.90;91.20;;;;;;5036283;27;20083;-86
2022/08/04 09:02:41;;;;;;;398.23;368.55;;;26.00;91.10;;;;;;5071161;28;20049;-80
2022/08/04 09:05:28;;;;;;;406.60;376.40;;;26.10;91.70;;;;;;5086005;28;20048;-76
2022/08/04 09:08:12;;;;;;;459.45;426.52;;;26.10;91.40;;;;;;5088704;28;20052;-74
2022/08/04 09:10:44;;;;;;;550.75;513.38;;;26.20;91.50;;;;;;5085639;28;20055;-76
2022/08/04 09:13:17;;;;;;;459.73;427.13;;;26.20;91.80;;;;;;5085144;28;20516;-73
2022/08/04 09:15:52;;;;;;;426.57;396.13;;;26.30;91.30;;;;;;5105638;28;20060;-75
2022/08/04 09:18:25;;;;;;;463.40;430.55;;;26.30;91.70;;;;;;5105080;27;20059;-75
2022/08/04 09:21:00;;;;;;;462.58;429.55;;;26.40;91.30;;;;;;5086656;28;20056;-74
2022/08/04 09:23:35;;;;;;;446.17;414.40;;;26.40;91.60;;;;;;5085122;28;20049;-76
2022/08/04 09:26:08;;;;;;;434.00;402.83;;;26.50;91.90;;;;;;5085735;28;20980;-76
2022/08/04 09:28:43;;;;;;;515.08;479.88;;;26.60;92.30;;;;;;5086662;28;21037;-75
2022/08/04 09:31:16;;;;;;;484.08;450.45;;;26.60;91.20;;;;;;5087515;28;20068;-75
2022/08/04 09:33:50;;;;;;;447.77;415.77;;;26.60;91.30;;;;;;5066440;28;20045;-74
2022/08/04 09:36:28;;;;;;;425.83;395.40;;;26.70;91.00;;;;;;5073854;28;20052;-75
2022/08/04 09:39:06;;;;;;;481.42;445.23;;;26.70;91.20;;;;;;5077097;28;20060;-74
2022/08/04 09:41:39;;;;;;;453.80;421.55;;;26.80;90.70;;;;;;5092348;28;20059;-75
2022/08/04 09:44:19;;;;;;;459.63;427.10;;;26.70;90.50;;;;;;5087155;28;20136;-75
2022/08/04 09:46:53;;;;;;;439.45;408.30;;;26.80;91.00;;;;;;5093332;28;20048;-75
2022/08/04 09:49:27;;;;;;;412.60;383.02;;;26.80;91.00;;;;;;5093132;28;20103;-74
2022/08/04 09:52:02;;;;;;;383.27;355.33;;;26.80;90.30;;;;;;5085928;28;20522;-73
2022/08/04 09:54:51;;;;;;;393.65;365.05;;;26.80;90.10;;;;;;5091351;28;20040;-73
2022/08/04 09:57:30;;;;;;;436.13;405.40;;;26.80;90.60;;;;;;5093854;28;20185;-73
2022/08/04 10:00:03;;;;;;;430.95;400.52;;;26.80;90.40;;;;;;5091858;28;20128;-73
2022/08/04 10:02:44;;;;;;;408.52;379.10;;;26.70;91.00;;;;;;5090464;28;20063;-75
2022/08/04 10:05:16;;;;;;;400.25;371.55;;;26.70;90.80;;;;;;5091257;28;20142;-76
2022/08/04 10:08:04;;;;;;;465.08;432.80;;;26.70;90.20;;;;;;5091013;28;20094;-79
2022/08/04 10:10:40;;;;;;;422.55;392.27;;;26.60;90.20;;;;;;5090880;28;20058;-78
2022/08/04 10:13:23;;;;;;;440.75;409.50;;;26.60;89.50;;;;;;5086709;28;20059;-77
2022/08/04 10:16:05;;;;;;;414.65;384.95;;;26.60;90.00;;;;;;5091915;28;20510;-79
2022/08/04 10:18:45;;;;;;;410.50;381.15;;;26.50;88.80;;;;;;5090922;28;20477;-78
2022/08/04 10:21:19;;;;;;;389.52;361.08;;;26.50;89.50;;;;;;5074692;28;20050;-82
2022/08/04 10:24:07;;;;;;;356.00;330.25;;;26.50;88.70;;;;;;5092668;28;20083;-79
2022/08/04 10:26:42;;;;;;;423.08;392.88;;;26.60;89.50;;;;;;5090487;28;20063;-80
2022/08/04 10:29:14;;;;;;;403.45;374.48;;;26.60;89.10;;;;;;5090028;28;20814;-76
2022/08/04 10:31:46;;;;;;;382.77;355.52;;;26.60;88.70;;;;;;5079856;28;20044;-80
2022/08/04 10:34:20;;;;;;;411.02;381.75;;;26.60;88.70;;;;;;5091604;28;20041;-85
2022/08/04 10:36:54;;;;;;;416.58;387.00;;;26.60;87.70;;;;;;5074661;28;20052;-79
2022/08/04 10:39:25;;;;;;;;;;;26.70;88.90;;;;;;5091337;28;20047;-75
2022/08/04 10:41:56;;;;;;;379.13;351.35;;;26.70;89.10;;;;;;5092306;28;19927;-77
2022/08/04 10:44:32;;;;;;;383.92;356.42;;;26.70;89.00;;;;;;5090771;28;20056;-77
2022/08/04 10:47:04;;;;;;;449.45;418.35;;;26.80;89.60;;;;;;5090503;28;20106;-77
2022/08/04 10:49:37;;;;;;;348.45;323.58;;;26.80;87.40;;;;;;5090280;28;20136;-77
2022/08/04 10:52:08;;;;;;;462.65;430.90;;;26.80;86.60;;;;;;5090471;28;20052;-81
2022/08/04 10:54:46;;;;;;;409.17;380.25;;;26.80;86.30;;;;;;5073899;28;20455;-88
2022/08/04 10:57:19;;;;;;;418.00;388.40;;;26.90;87.20;;;;;;5074094;28;20152;-83
2022/08/04 10:59:53;;;;;;;405.83;376.15;;;26.90;85.50;;;;;;5089687;28;20053;-82
2022/08/04 11:02:37;;;;;;;355.55;329.95;;;26.90;86.20;;;;;;5076889;28;20517;-86
2022/08/04 11:05:24;;;;;;;409.25;380.02;;;26.80;87.40;;;;;;5053126;28;20059;-81
2022/08/04 11:07:56;;;;;;;400.17;371.70;;;26.90;86.10;;;;;;5052312;28;20049;-83
2022/08/04 11:10:29;;;;;;;344.73;319.30;;;26.90;86.40;;;;;;5052815;28;20128;-82
2022/08/04 11:13:01;;;;;;;399.33;370.70;;;26.80;85.60;;;;;;5070220;28;20053;-87
2022/08/04 11:15:34;;;;;;;367.70;341.33;;;26.90;86.00;;;;;;5054200;28;20142;-79
2022/08/04 11:18:07;;;;;;;334.58;309.38;;;26.90;87.50;;;;;;5063302;22;20050;-82
2022/08/04 11:20:45;;;;;;;411.05;381.77;;;26.90;85.80;;;;;;5010571;28;20109;-78
2022/08/04 11:23:15;;;;;;;348.05;322.40;;;27.00;84.80;;;;;;5010446;28;20109;-75
2022/08/04 11:25:55;;;;;;;303.73;280.92;;;27.00;85.00;;;;;;5011092;28;20411;-79
2022/08/04 11:28:33;;;;;;;302.95;280.83;;;27.00;84.80;;;;;;5010543;28;20058;-81
2022/08/04 11:31:05;;;;;;;364.35;337.95;;;27.00;84.80;;;;;;5010942;28;20054;-80
2022/08/04 11:33:41;;;;;;;318.10;294.70;;;27.00;84.40;;;;;;5012084;28;20051;-81
2022/08/04 11:36:20;;;;;;;304.85;282.20;;;27.10;84.50;;;;;;5012185;28;20125;-77
2022/08/04 11:38:51;;;;;;;308.13;284.50;;;27.10;84.40;;;;;;5031589;28;20168;-78
2022/08/04 11:41:22;;;;;;;388.45;360.20;;;27.10;84.50;;;;;;5013641;28;20058;-80
2022/08/04 11:43:57;;;;;;;367.38;340.77;;;27.10;84.80;;;;;;5031658;28;20193;-72
2022/08/04 11:46:30;;;;;;;324.55;300.17;;;27.10;85.30;;;;;;5029528;28;20049;-82
2022/08/04 11:49:00;;;;;;;;;;;27.10;85.70;;;;;;5030641;28;20932;-76
2022/08/04 11:51:30;;;;;;;329.80;304.58;;;27.10;86.20;;;;;;5014432;28;20039;-81
2022/08/04 11:53:58;;;;;;;379.65;352.25;;;27.10;86.20;;;;;;4993616;28;20137;-77
2022/08/04 11:56:25;;;;;;;335.73;311.17;;;27.10;85.50;;;;;;5009063;28;20472;-73
2022/08/04 11:58:52;;;;;;;342.90;318.27;;;27.10;85.20;;;;;;5009209;28;20050;-70
2022/08/04 12:01:28;;;;;;;375.17;348.20;;;27.10;84.40;;;;;;5008703;28;20604;-71
2022/08/04 12:04:05;;;;;;;395.05;367.00;;;27.10;84.10;;;;;;5009259;28;20062;-71
2022/08/04 12:06:44;;;;;;;346.98;322.13;;;27.10;84.00;;;;;;5008911;28;20242;-77
2022/08/04 12:09:20;;;;;;;359.38;333.60;;;27.10;84.00;;;;;;5008218;28;20125;-76
2022/08/04 12:11:55;;;;;;;395.90;367.92;;;27.10;83.40;;;;;;5020547;28;20061;-76
2022/08/04 12:14:31;;;;;;;380.85;353.52;;;27.10;82.20;;;;;;5026000;28;20045;-74
2022/08/04 12:17:00;;;;;;;413.02;384.00;;;27.00;81.20;;;;;;5006347;28;20489;-76
2022/08/04 12:19:32;;;;;;;369.52;342.90;;;26.90;80.30;;;;;;5009984;28;20054;-76
2022/08/04 12:22:05;;;;;;;385.23;357.90;;;26.80;80.20;;;;;;5011563;28;20053;-76
2022/08/04 12:24:36;;;;;;;398.63;370.40;;;26.70;80.30;;;;;;5010622;28;20050;-77
2022/08/04 12:27:11;;;;;;;477.55;445.13;;;26.70;80.10;;;;;;5010202;28;20058;-76
2022/08/04 12:29:41;;;;;;;414.38;384.55;;;26.60;80.60;;;;;;5010411;28;20543;-70
2022/08/04 12:32:20;;;;;;;430.48;400.25;;;26.60;80.10;;;;;;5008895;28;20054;-72
2022/08/04 12:34:58;;;;;;;428.23;398.30;;;26.60;79.90;;;;;;5008314;28;20055;-74
2022/08/04 12:37:36;;;;;;;502.75;469.02;;;26.60;80.00;;;;;;5020389;28;20566;-72
2022/08/04 12:40:10;;;;;;;428.00;397.67;;;26.50;79.30;;;;;;5019559;28;20074;-73
2022/08/04 12:42:58;;;;;;;464.67;432.65;;;26.30;80.10;;;;;;5017942;28;20061;-72
2022/08/04 12:45:25;;;;;;;441.92;410.83;;;26.20;80.90;;;;;;5019349;28;20515;-73
2022/08/04 12:47:56;;;;;;;423.80;393.85;;;26.10;80.90;;;;;;5029971;28;20054;-75
2022/08/04 12:50:24;;;;;;;399.42;370.33;;;26.00;80.90;;;;;;5030603;28;20065;-74
2022/08/04 12:52:56;;;;;;;422.75;392.67;;;25.90;81.60;;;;;;5008643;28;20046;-72
2022/08/04 12:55:27;;;;;;;430.48;400.13;;;25.80;80.40;;;;;;5010206;28;20140;-77
2022/08/04 12:57:57;;;;;;;415.98;386.05;;;25.70;80.50;;;;;;4993330;28;20384;-79
2022/08/04 13:00:27;;;;;;;426.70;396.33;;;25.50;81.00;;;;;;4993101;28;20050;-79